sensor_id;sensor_type;location;lat;lon;timestamp;P1;durP1;ratioP1;P2;durP2;ratioP2
56363;SDS011;42261;52.094;4.326;2023-04-24T00:00:58;3.50;;;1.65;;
56363;SDS011;42261;52.094;4.326;2023-04-24T00:03:45;6.93;;;1.10;;
56363;SDS011;42261;52.094;4.326;2023-04-24T00:06:29;2.08;;;0.85;;
56363;SDS011;42261;52.094;4.326;2023-04-24T00:09:17;4.75;;;0.80;;
56363;SDS011;42261;52.094;4.326;2023-04-24T00:12:02;5.18;;;1.00;;
56363;SDS011;42261;52.094;4.326;2023-04-24T00:14:49;2.05;;;0.82;;
56363;SDS011;42261;52.094;4.326;2023-04-24T00:17:34;2.08;;;0.80;;
56363;SDS011;42261;52.094;4.326;2023-04-24T00:20:18;5.82;;;1.02;;
56363;SDS011;42261;52.094;4.326;2023-04-24T00:23:03;2.38;;;0.80;;
56363;SDS011;42261;52.094;4.326;2023-04-24T00:25:47;2.38;;;0.88;;
56363;SDS011;42261;52.094;4.326;2023-04-24T00:28:30;2.47;;;1.00;;
56363;SDS011;42261;52.094;4.326;2023-04-24T00:31:16;3.58;;;0.73;;
56363;SDS011;42261;52.094;4.326;2023-04-24T00:34:01;4.32;;;0.70;;
56363;SDS011;42261;52.094;4.326;2023-04-24T00:36:46;1.42;;;0.50;;
56363;SDS011;42261;52.094;4.326;2023-04-24T00:39:30;1.70;;;0.60;;
56363;SDS011;42261;52.094;4.326;2023-04-24T00:42:14;2.10;;;0.75;;
56363;SDS011;42261;52.094;4.326;2023-04-24T00:44:58;3.22;;;0.63;;
56363;SDS011;42261;52.094;4.326;2023-04-24T00:47:44;1.55;;;0.70;;
56363;SDS011;42261;52.094;4.326;2023-04-24T00:50:28;5.70;;;0.75;;
56363;SDS011;42261;52.094;4.326;2023-04-24T00:53:12;1.08;;;0.60;;
56363;SDS011;42261;52.094;4.326;2023-04-24T00:55:56;1.65;;;0.70;;
56363;SDS011;42261;52.094;4.326;2023-04-24T00:58:41;4.22;;;0.95;;
56363;SDS011;42261;52.094;4.326;2023-04-24T01:01:25;2.13;;;0.68;;
56363;SDS011;42261;52.094;4.326;2023-04-24T01:04:09;2.58;;;0.80;;
56363;SDS011;42261;52.094;4.326;2023-04-24T01:06:55;3.10;;;1.08;;
56363;SDS011;42261;52.094;4.326;2023-04-24T01:09:40;2.40;;;0.70;;
56363;SDS011;42261;52.094;4.326;2023-04-24T01:12:27;4.25;;;0.88;;
56363;SDS011;42261;52.094;4.326;2023-04-24T01:15:11;0.85;;;0.60;;
56363;SDS011;42261;52.094;4.326;2023-04-24T01:17:55;2.70;;;0.50;;
56363;SDS011;42261;52.094;4.326;2023-04-24T01:20:40;1.58;;;0.45;;
56363;SDS011;42261;52.094;4.326;2023-04-24T01:23:26;1.08;;;0.65;;
56363;SDS011;42261;52.094;4.326;2023-04-24T01:26:10;2.83;;;0.80;;
56363;SDS011;42261;52.094;4.326;2023-04-24T01:28:55;3.22;;;0.68;;
56363;SDS011;42261;52.094;4.326;2023-04-24T01:31:39;1.77;;;0.90;;
56363;SDS011;42261;52.094;4.326;2023-04-24T01:34:24;1.70;;;0.80;;
56363;SDS011;42261;52.094;4.326;2023-04-24T01:37:09;1.73;;;0.75;;
56363;SDS011;42261;52.094;4.326;2023-04-24T01:39:53;2.38;;;0.80;;
56363;SDS011;42261;52.094;4.326;2023-04-24T01:42:37;3.40;;;0.77;;
56363;SDS011;42261;52.094;4.326;2023-04-24T01:45:23;3.20;;;0.90;;
56363;SDS011;42261;52.094;4.326;2023-04-24T01:48:07;1.88;;;1.02;;
56363;SDS011;42261;52.094;4.326;2023-04-24T01:50:51;4.97;;;1.38;;
56363;SDS011;42261;52.094;4.326;2023-04-24T01:53:36;1.17;;;0.70;;
56363;SDS011;42261;52.094;4.326;2023-04-24T01:56:20;1.20;;;0.80;;
56363;SDS011;42261;52.094;4.326;2023-04-24T01:59:05;2.53;;;0.70;;
56363;SDS011;42261;52.094;4.326;2023-04-24T02:01:49;1.27;;;0.68;;
56363;SDS011;42261;52.094;4.326;2023-04-24T02:04:33;4.57;;;0.88;;
56363;SDS011;42261;52.094;4.326;2023-04-24T02:07:17;1.75;;;1.00;;
56363;SDS011;42261;52.094;4.326;2023-04-24T02:10:02;5.75;;;0.70;;
56363;SDS011;42261;52.094;4.326;2023-04-24T02:12:47;1.55;;;0.60;;
56363;SDS011;42261;52.094;4.326;2023-04-24T02:15:31;2.40;;;0.65;;
56363;SDS011;42261;52.094;4.326;2023-04-24T02:18:15;2.67;;;0.47;;
56363;SDS011;42261;52.094;4.326;2023-04-24T02:21:00;4.00;;;0.55;;
56363;SDS011;42261;52.094;4.326;2023-04-24T02:23:44;5.82;;;0.60;;
56363;SDS011;42261;52.094;4.326;2023-04-24T02:26:29;3.08;;;0.70;;
56363;SDS011;42261;52.094;4.326;2023-04-24T02:29:15;3.53;;;0.70;;
56363;SDS011;42261;52.094;4.326;2023-04-24T02:31:59;1.25;;;0.70;;
56363;SDS011;42261;52.094;4.326;2023-04-24T02:34:45;3.55;;;1.05;;
56363;SDS011;42261;52.094;4.326;2023-04-24T02:37:29;1.85;;;0.60;;
56363;SDS011;42261;52.094;4.326;2023-04-24T02:40:14;2.50;;;0.40;;
56363;SDS011;42261;52.094;4.326;2023-04-24T02:42:58;3.45;;;0.60;;
56363;SDS011;42261;52.094;4.326;2023-04-24T02:45:42;2.72;;;0.47;;
56363;SDS011;42261;52.094;4.326;2023-04-24T02:48:27;1.73;;;0.40;;
56363;SDS011;42261;52.094;4.326;2023-04-24T02:51:11;2.10;;;0.20;;
56363;SDS011;42261;52.094;4.326;2023-04-24T02:53:55;0.40;;;0.30;;
56363;SDS011;42261;52.094;4.326;2023-04-24T02:56:39;0.47;;;0.20;;
56363;SDS011;42261;52.094;4.326;2023-04-24T02:59:23;2.00;;;0.25;;
56363;SDS011;42261;52.094;4.326;2023-04-24T03:02:07;2.40;;;0.20;;
56363;SDS011;42261;52.094;4.326;2023-04-24T03:04:53;0.40;;;0.30;;
56363;SDS011;42261;52.094;4.326;2023-04-24T03:07:37;1.15;;;0.30;;
56363;SDS011;42261;52.094;4.326;2023-04-24T03:10:22;2.05;;;0.30;;
56363;SDS011;42261;52.094;4.326;2023-04-24T03:13:09;2.92;;;0.40;;
56363;SDS011;42261;52.094;4.326;2023-04-24T03:15:53;0.73;;;0.50;;
56363;SDS011;42261;52.094;4.326;2023-04-24T03:18:37;1.65;;;0.20;;
56363;SDS011;42261;52.094;4.326;2023-04-24T03:21:22;0.88;;;0.32;;
56363;SDS011;42261;52.094;4.326;2023-04-24T03:24:07;1.95;;;0.35;;
56363;SDS011;42261;52.094;4.326;2023-04-24T03:26:52;1.08;;;0.30;;
56363;SDS011;42261;52.094;4.326;2023-04-24T03:29:36;0.40;;;0.20;;
56363;SDS011;42261;52.094;4.326;2023-04-24T03:32:23;3.22;;;0.35;;
56363;SDS011;42261;52.094;4.326;2023-04-24T03:35:07;1.55;;;0.22;;
56363;SDS011;42261;52.094;4.326;2023-04-24T03:37:53;1.95;;;0.45;;
56363;SDS011;42261;52.094;4.326;2023-04-24T03:40:38;3.70;;;0.50;;
56363;SDS011;42261;52.094;4.326;2023-04-24T03:43:22;1.60;;;0.38;;
56363;SDS011;42261;52.094;4.326;2023-04-24T03:46:07;0.85;;;0.30;;
56363;SDS011;42261;52.094;4.326;2023-04-24T03:48:53;1.23;;;0.50;;
56363;SDS011;42261;52.094;4.326;2023-04-24T03:51:36;1.55;;;0.40;;
56363;SDS011;42261;52.094;4.326;2023-04-24T03:54:20;3.60;;;0.47;;
56363;SDS011;42261;52.094;4.326;2023-04-24T03:57:04;0.90;;;0.30;;
56363;SDS011;42261;52.094;4.326;2023-04-24T03:59:49;1.10;;;0.50;;
56363;SDS011;42261;52.094;4.326;2023-04-24T04:02:33;2.22;;;0.75;;
56363;SDS011;42261;52.094;4.326;2023-04-24T04:05:17;7.63;;;0.90;;
56363;SDS011;42261;52.094;4.326;2023-04-24T04:08:01;5.07;;;1.88;;
56363;SDS011;42261;52.094;4.326;2023-04-24T04:10:45;5.38;;;1.70;;
56363;SDS011;42261;52.094;4.326;2023-04-24T04:13:29;10.07;;;1.90;;
56363;SDS011;42261;52.094;4.326;2023-04-24T04:16:14;9.07;;;2.30;;
56363;SDS011;42261;52.094;4.326;2023-04-24T04:19:00;6.20;;;2.20;;
56363;SDS011;42261;52.094;4.326;2023-04-24T04:21:44;6.05;;;2.60;;
56363;SDS011;42261;52.094;4.326;2023-04-24T04:24:29;7.70;;;2.30;;
56363;SDS011;42261;52.094;4.326;2023-04-24T04:27:13;11.95;;;2.60;;
56363;SDS011;42261;52.094;4.326;2023-04-24T04:30:01;7.47;;;2.00;;
56363;SDS011;42261;52.094;4.326;2023-04-24T04:32:48;7.13;;;2.10;;
56363;SDS011;42261;52.094;4.326;2023-04-24T04:35:33;6.00;;;2.10;;
56363;SDS011;42261;52.094;4.326;2023-04-24T04:38:18;9.18;;;3.58;;
56363;SDS011;42261;52.094;4.326;2023-04-24T04:41:03;11.95;;;5.07;;
56363;SDS011;42261;52.094;4.326;2023-04-24T04:43:47;19.08;;;7.03;;
56363;SDS011;42261;52.094;4.326;2023-04-24T04:46:31;19.08;;;6.90;;
56363;SDS011;42261;52.094;4.326;2023-04-24T04:49:16;18.63;;;7.43;;
56363;SDS011;42261;52.094;4.326;2023-04-24T04:52:02;14.63;;;5.90;;
56363;SDS011;42261;52.094;4.326;2023-04-24T04:54:47;14.20;;;6.80;;
56363;SDS011;42261;52.094;4.326;2023-04-24T04:57:31;17.15;;;6.10;;
56363;SDS011;42261;52.094;4.326;2023-04-24T05:00:16;11.77;;;6.10;;
56363;SDS011;42261;52.094;4.326;2023-04-24T05:03:00;14.27;;;4.63;;
56363;SDS011;42261;52.094;4.326;2023-04-24T05:05:45;12.68;;;4.05;;
56363;SDS011;42261;52.094;4.326;2023-04-24T05:08:29;13.63;;;4.78;;
56363;SDS011;42261;52.094;4.326;2023-04-24T05:11:13;18.40;;;4.90;;
56363;SDS011;42261;52.094;4.326;2023-04-24T05:13:57;11.10;;;5.32;;
56363;SDS011;42261;52.094;4.326;2023-04-24T05:16:42;15.55;;;5.60;;
56363;SDS011;42261;52.094;4.326;2023-04-24T05:19:26;13.70;;;5.07;;
56363;SDS011;42261;52.094;4.326;2023-04-24T05:22:10;11.88;;;4.85;;
56363;SDS011;42261;52.094;4.326;2023-04-24T05:24:55;15.25;;;6.18;;
56363;SDS011;42261;52.094;4.326;2023-04-24T05:27:39;12.30;;;4.95;;
56363;SDS011;42261;52.094;4.326;2023-04-24T05:30:24;14.10;;;5.20;;
56363;SDS011;42261;52.094;4.326;2023-04-24T05:33:09;12.65;;;5.28;;
56363;SDS011;42261;52.094;4.326;2023-04-24T05:35:53;10.45;;;5.05;;
56363;SDS011;42261;52.094;4.326;2023-04-24T05:38:38;14.20;;;5.15;;
56363;SDS011;42261;52.094;4.326;2023-04-24T05:41:23;13.75;;;5.00;;
56363;SDS011;42261;52.094;4.326;2023-04-24T05:44:07;15.48;;;4.95;;
56363;SDS011;42261;52.094;4.326;2023-04-24T05:46:50;13.73;;;4.35;;
56363;SDS011;42261;52.094;4.326;2023-04-24T05:49:34;13.88;;;3.92;;
56363;SDS011;42261;52.094;4.326;2023-04-24T05:52:18;15.65;;;3.75;;
56363;SDS011;42261;52.094;4.326;2023-04-24T05:55:03;10.80;;;3.97;;
56363;SDS011;42261;52.094;4.326;2023-04-24T05:57:47;16.58;;;3.17;;
56363;SDS011;42261;52.094;4.326;2023-04-24T06:00:31;15.93;;;3.88;;
56363;SDS011;42261;52.094;4.326;2023-04-24T06:03:16;12.32;;;3.55;;
56363;SDS011;42261;52.094;4.326;2023-04-24T06:06:00;15.15;;;3.00;;
56363;SDS011;42261;52.094;4.326;2023-04-24T06:08:44;9.48;;;2.72;;
56363;SDS011;42261;52.094;4.326;2023-04-24T06:11:29;15.65;;;2.95;;
56363;SDS011;42261;52.094;4.326;2023-04-24T06:14:14;11.23;;;2.85;;
56363;SDS011;42261;52.094;4.326;2023-04-24T06:16:59;16.38;;;3.03;;
56363;SDS011;42261;52.094;4.326;2023-04-24T06:19:43;12.90;;;3.28;;
56363;SDS011;42261;52.094;4.326;2023-04-24T06:22:27;14.95;;;3.53;;
56363;SDS011;42261;52.094;4.326;2023-04-24T06:25:11;16.23;;;3.60;;
56363;SDS011;42261;52.094;4.326;2023-04-24T06:27:55;8.68;;;2.47;;
56363;SDS011;42261;52.094;4.326;2023-04-24T06:30:40;16.63;;;2.85;;
56363;SDS011;42261;52.094;4.326;2023-04-24T06:33:25;11.77;;;3.47;;
56363;SDS011;42261;52.094;4.326;2023-04-24T06:36:09;12.30;;;2.47;;
56363;SDS011;42261;52.094;4.326;2023-04-24T06:38:52;14.55;;;2.65;;
56363;SDS011;42261;52.094;4.326;2023-04-24T06:41:38;15.02;;;3.15;;
56363;SDS011;42261;52.094;4.326;2023-04-24T06:44:23;10.35;;;2.20;;
56363;SDS011;42261;52.094;4.326;2023-04-24T06:47:09;14.27;;;2.30;;
56363;SDS011;42261;52.094;4.326;2023-04-24T06:49:54;16.77;;;2.17;;
56363;SDS011;42261;52.094;4.326;2023-04-24T06:52:39;10.10;;;2.20;;
56363;SDS011;42261;52.094;4.326;2023-04-24T06:55:24;13.88;;;2.08;;
56363;SDS011;42261;52.094;4.326;2023-04-24T06:58:08;13.13;;;2.50;;
56363;SDS011;42261;52.094;4.326;2023-04-24T07:00:53;14.90;;;1.90;;
56363;SDS011;42261;52.094;4.326;2023-04-24T07:03:37;10.40;;;2.30;;
56363;SDS011;42261;52.094;4.326;2023-04-24T07:06:21;7.82;;;2.45;;
56363;SDS011;42261;52.094;4.326;2023-04-24T07:09:06;11.45;;;1.63;;
56363;SDS011;42261;52.094;4.326;2023-04-24T07:11:52;12.25;;;2.17;;
56363;SDS011;42261;52.094;4.326;2023-04-24T07:14:38;11.95;;;2.53;;
56363;SDS011;42261;52.094;4.326;2023-04-24T07:17:22;6.68;;;1.75;;
56363;SDS011;42261;52.094;4.326;2023-04-24T07:20:07;9.02;;;2.60;;
56363;SDS011;42261;52.094;4.326;2023-04-24T07:22:54;10.55;;;2.38;;
56363;SDS011;42261;52.094;4.326;2023-04-24T07:25:39;10.90;;;2.20;;
56363;SDS011;42261;52.094;4.326;2023-04-24T07:28:24;16.63;;;2.63;;
56363;SDS011;42261;52.094;4.326;2023-04-24T07:31:10;9.18;;;1.75;;
56363;SDS011;42261;52.094;4.326;2023-04-24T07:33:55;8.77;;;1.50;;
56363;SDS011;42261;52.094;4.326;2023-04-24T07:36:41;13.63;;;1.88;;
56363;SDS011;42261;52.094;4.326;2023-04-24T07:39:25;8.82;;;1.33;;
56363;SDS011;42261;52.094;4.326;2023-04-24T07:42:11;10.80;;;1.88;;
56363;SDS011;42261;52.094;4.326;2023-04-24T07:44:55;12.18;;;2.28;;
56363;SDS011;42261;52.094;4.326;2023-04-24T07:47:39;9.38;;;1.80;;
56363;SDS011;42261;52.094;4.326;2023-04-24T07:50:27;7.38;;;1.77;;
56363;SDS011;42261;52.094;4.326;2023-04-24T07:53:11;7.75;;;1.85;;
56363;SDS011;42261;52.094;4.326;2023-04-24T07:55:55;8.10;;;1.90;;
56363;SDS011;42261;52.094;4.326;2023-04-24T07:58:39;8.15;;;1.83;;
56363;SDS011;42261;52.094;4.326;2023-04-24T08:01:24;7.00;;;1.35;;
56363;SDS011;42261;52.094;4.326;2023-04-24T08:04:09;12.25;;;1.95;;
56363;SDS011;42261;52.094;4.326;2023-04-24T08:06:53;7.32;;;1.60;;
56363;SDS011;42261;52.094;4.326;2023-04-24T08:09:37;6.03;;;1.58;;
56363;SDS011;42261;52.094;4.326;2023-04-24T08:12:23;7.35;;;1.60;;
56363;SDS011;42261;52.094;4.326;2023-04-24T08:15:08;4.03;;;1.45;;
56363;SDS011;42261;52.094;4.326;2023-04-24T08:17:52;3.40;;;0.98;;
56363;SDS011;42261;52.094;4.326;2023-04-24T08:20:37;4.28;;;1.10;;
56363;SDS011;42261;52.094;4.326;2023-04-24T08:23:21;5.32;;;0.95;;
56363;SDS011;42261;52.094;4.326;2023-04-24T08:26:06;9.60;;;1.80;;
56363;SDS011;42261;52.094;4.326;2023-04-24T08:28:50;6.38;;;1.35;;
56363;SDS011;42261;52.094;4.326;2023-04-24T08:31:36;5.68;;;1.10;;
56363;SDS011;42261;52.094;4.326;2023-04-24T08:34:21;8.45;;;1.20;;
56363;SDS011;42261;52.094;4.326;2023-04-24T08:37:05;5.82;;;0.95;;
56363;SDS011;42261;52.094;4.326;2023-04-24T08:39:49;7.60;;;1.25;;
56363;SDS011;42261;52.094;4.326;2023-04-24T08:42:34;3.50;;;1.23;;
56363;SDS011;42261;52.094;4.326;2023-04-24T08:45:21;4.50;;;0.85;;
56363;SDS011;42261;52.094;4.326;2023-04-24T08:48:05;5.80;;;0.75;;
56363;SDS011;42261;52.094;4.326;2023-04-24T08:50:52;15.07;;;1.35;;
56363;SDS011;42261;52.094;4.326;2023-04-24T08:53:37;2.20;;;0.73;;
56363;SDS011;42261;52.094;4.326;2023-04-24T08:56:21;7.78;;;0.77;;
56363;SDS011;42261;52.094;4.326;2023-04-24T08:59:07;1.35;;;0.70;;
56363;SDS011;42261;52.094;4.326;2023-04-24T09:01:54;4.55;;;0.73;;
56363;SDS011;42261;52.094;4.326;2023-04-24T09:04:39;3.40;;;0.70;;
56363;SDS011;42261;52.094;4.326;2023-04-24T09:07:24;8.20;;;0.98;;
56363;SDS011;42261;52.094;4.326;2023-04-24T09:10:09;3.85;;;0.70;;
56363;SDS011;42261;52.094;4.326;2023-04-24T09:12:54;3.28;;;0.73;;
56363;SDS011;42261;52.094;4.326;2023-04-24T09:15:39;2.35;;;0.63;;
56363;SDS011;42261;52.094;4.326;2023-04-24T09:18:25;6.90;;;0.73;;
56363;SDS011;42261;52.094;4.326;2023-04-24T09:21:09;4.40;;;0.73;;
56363;SDS011;42261;52.094;4.326;2023-04-24T09:24:04;3.75;;;1.00;;
56363;SDS011;42261;52.094;4.326;2023-04-24T09:26:49;5.13;;;1.15;;
56363;SDS011;42261;52.094;4.326;2023-04-24T09:29:54;3.30;;;0.90;;
56363;SDS011;42261;52.094;4.326;2023-04-24T09:32:39;3.50;;;0.77;;
56363;SDS011;42261;52.094;4.326;2023-04-24T09:35:24;2.78;;;0.70;;
56363;SDS011;42261;52.094;4.326;2023-04-24T09:38:08;4.53;;;0.57;;
56363;SDS011;42261;52.094;4.326;2023-04-24T09:40:52;6.80;;;1.40;;
56363;SDS011;42261;52.094;4.326;2023-04-24T09:43:36;2.38;;;0.73;;
56363;SDS011;42261;52.094;4.326;2023-04-24T09:46:20;5.28;;;0.80;;
56363;SDS011;42261;52.094;4.326;2023-04-24T09:49:09;4.20;;;0.80;;
56363;SDS011;42261;52.094;4.326;2023-04-24T09:52:08;6.13;;;0.65;;
56363;SDS011;42261;52.094;4.326;2023-04-24T09:54:52;4.35;;;1.13;;
56363;SDS011;42261;52.094;4.326;2023-04-24T09:57:46;3.00;;;0.70;;
56363;SDS011;42261;52.094;4.326;2023-04-24T10:00:31;7.75;;;1.17;;
56363;SDS011;42261;52.094;4.326;2023-04-24T10:03:15;5.28;;;0.93;;
56363;SDS011;42261;52.094;4.326;2023-04-24T10:06:02;4.25;;;0.90;;
56363;SDS011;42261;52.094;4.326;2023-04-24T10:08:46;4.25;;;1.05;;
56363;SDS011;42261;52.094;4.326;2023-04-24T10:11:31;6.72;;;1.02;;
56363;SDS011;42261;52.094;4.326;2023-04-24T10:14:16;5.88;;;0.80;;
56363;SDS011;42261;52.094;4.326;2023-04-24T10:17:00;2.92;;;0.60;;
56363;SDS011;42261;52.094;4.326;2023-04-24T10:19:44;4.55;;;0.80;;
56363;SDS011;42261;52.094;4.326;2023-04-24T10:22:29;3.13;;;0.70;;
56363;SDS011;42261;52.094;4.326;2023-04-24T10:25:14;4.57;;;0.95;;
56363;SDS011;42261;52.094;4.326;2023-04-24T10:28:00;7.72;;;0.95;;
56363;SDS011;42261;52.094;4.326;2023-04-24T10:30:45;2.40;;;0.65;;
56363;SDS011;42261;52.094;4.326;2023-04-24T10:33:29;2.78;;;0.77;;
56363;SDS011;42261;52.094;4.326;2023-04-24T10:36:14;7.68;;;1.05;;
56363;SDS011;42261;52.094;4.326;2023-04-24T10:39:01;6.90;;;1.10;;
56363;SDS011;42261;52.094;4.326;2023-04-24T10:41:46;4.68;;;0.90;;
56363;SDS011;42261;52.094;4.326;2023-04-24T10:44:36;3.30;;;0.73;;
56363;SDS011;42261;52.094;4.326;2023-04-24T10:47:20;1.77;;;0.50;;
56363;SDS011;42261;52.094;4.326;2023-04-24T10:50:07;5.40;;;0.95;;
56363;SDS011;42261;52.094;4.326;2023-04-24T10:52:52;2.85;;;0.68;;
56363;SDS011;42261;52.094;4.326;2023-04-24T10:55:42;3.92;;;0.70;;
56363;SDS011;42261;52.094;4.326;2023-04-24T11:01:24;4.85;;;0.50;;
56363;SDS011;42261;52.094;4.326;2023-04-24T11:04:10;5.05;;;1.50;;
56363;SDS011;42261;52.094;4.326;2023-04-24T11:06:54;1.77;;;0.50;;
56363;SDS011;42261;52.094;4.326;2023-04-24T11:09:39;6.25;;;0.77;;
56363;SDS011;42261;52.094;4.326;2023-04-24T11:12:27;8.13;;;0.93;;
56363;SDS011;42261;52.094;4.326;2023-04-24T11:15:11;4.10;;;0.73;;
56363;SDS011;42261;52.094;4.326;2023-04-24T11:17:56;4.70;;;0.60;;
56363;SDS011;42261;52.094;4.326;2023-04-24T11:20:44;8.65;;;1.10;;
56363;SDS011;42261;52.094;4.326;2023-04-24T11:23:28;3.03;;;0.70;;
56363;SDS011;42261;52.094;4.326;2023-04-24T11:26:21;5.30;;;1.23;;
56363;SDS011;42261;52.094;4.326;2023-04-24T11:29:07;3.28;;;0.88;;
56363;SDS011;42261;52.094;4.326;2023-04-24T11:31:52;19.83;;;1.70;;
56363;SDS011;42261;52.094;4.326;2023-04-24T11:34:36;7.15;;;0.98;;
56363;SDS011;42261;52.094;4.326;2023-04-24T11:37:23;3.42;;;1.13;;
56363;SDS011;42261;52.094;4.326;2023-04-24T11:40:11;5.07;;;1.35;;
56363;SDS011;42261;52.094;4.326;2023-04-24T11:42:56;7.85;;;1.13;;
56363;SDS011;42261;52.094;4.326;2023-04-24T11:45:47;10.38;;;1.95;;
56363;SDS011;42261;52.094;4.326;2023-04-24T11:48:34;4.45;;;0.80;;
56363;SDS011;42261;52.094;4.326;2023-04-24T11:51:24;7.47;;;1.27;;
56363;SDS011;42261;52.094;4.326;2023-04-24T11:54:12;6.80;;;1.17;;
56363;SDS011;42261;52.094;4.326;2023-04-24T11:56:56;3.55;;;0.90;;
56363;SDS011;42261;52.094;4.326;2023-04-24T11:59:40;11.50;;;1.40;;
56363;SDS011;42261;52.094;4.326;2023-04-24T12:02:25;9.10;;;1.67;;
56363;SDS011;42261;52.094;4.326;2023-04-24T12:05:20;10.50;;;1.80;;
56363;SDS011;42261;52.094;4.326;2023-04-24T12:08:05;13.60;;;1.95;;
56363;SDS011;42261;52.094;4.326;2023-04-24T12:10:50;8.05;;;1.23;;
56363;SDS011;42261;52.094;4.326;2023-04-24T12:13:35;6.85;;;1.98;;
56363;SDS011;42261;52.094;4.326;2023-04-24T12:16:20;8.35;;;1.85;;
56363;SDS011;42261;52.094;4.326;2023-04-24T12:19:04;6.93;;;1.70;;
56363;SDS011;42261;52.094;4.326;2023-04-24T12:21:59;11.23;;;1.60;;
56363;SDS011;42261;52.094;4.326;2023-04-24T12:25:02;8.70;;;2.03;;
56363;SDS011;42261;52.094;4.326;2023-04-24T12:27:52;6.40;;;1.60;;
56363;SDS011;42261;52.094;4.326;2023-04-24T12:30:40;7.90;;;1.70;;
56363;SDS011;42261;52.094;4.326;2023-04-24T12:33:25;7.80;;;1.80;;
56363;SDS011;42261;52.094;4.326;2023-04-24T12:36:10;13.57;;;1.98;;
56363;SDS011;42261;52.094;4.326;2023-04-24T12:38:55;6.10;;;1.60;;
56363;SDS011;42261;52.094;4.326;2023-04-24T12:41:48;9.85;;;1.63;;
56363;SDS011;42261;52.094;4.326;2023-04-24T12:44:34;7.80;;;1.58;;
56363;SDS011;42261;52.094;4.326;2023-04-24T12:47:20;11.00;;;1.60;;
56363;SDS011;42261;52.094;4.326;2023-04-24T12:50:04;12.40;;;1.50;;
56363;SDS011;42261;52.094;4.326;2023-04-24T12:52:49;3.83;;;1.63;;
56363;SDS011;42261;52.094;4.326;2023-04-24T12:55:33;8.38;;;1.77;;
56363;SDS011;42261;52.094;4.326;2023-04-24T12:58:17;10.45;;;1.80;;
56363;SDS011;42261;52.094;4.326;2023-04-24T13:01:02;5.55;;;1.27;;
56363;SDS011;42261;52.094;4.326;2023-04-24T13:03:46;9.23;;;1.50;;
56363;SDS011;42261;52.094;4.326;2023-04-24T13:06:31;12.75;;;2.15;;
56363;SDS011;42261;52.094;4.326;2023-04-24T13:09:15;9.82;;;1.60;;
56363;SDS011;42261;52.094;4.326;2023-04-24T13:12:01;9.95;;;1.40;;
56363;SDS011;42261;52.094;4.326;2023-04-24T13:14:45;7.53;;;1.42;;
56363;SDS011;42261;52.094;4.326;2023-04-24T13:17:31;7.25;;;1.55;;
56363;SDS011;42261;52.094;4.326;2023-04-24T13:20:15;3.97;;;1.73;;
56363;SDS011;42261;52.094;4.326;2023-04-24T13:22:59;4.88;;;1.40;;
56363;SDS011;42261;52.094;4.326;2023-04-24T13:25:43;7.65;;;1.50;;
56363;SDS011;42261;52.094;4.326;2023-04-24T13:28:27;7.97;;;1.70;;
56363;SDS011;42261;52.094;4.326;2023-04-24T13:31:13;5.60;;;1.42;;
56363;SDS011;42261;52.094;4.326;2023-04-24T13:33:58;12.27;;;2.05;;
56363;SDS011;42261;52.094;4.326;2023-04-24T13:36:42;7.63;;;1.85;;
56363;SDS011;42261;52.094;4.326;2023-04-24T13:39:26;10.00;;;1.75;;
56363;SDS011;42261;52.094;4.326;2023-04-24T13:42:10;11.38;;;1.65;;
56363;SDS011;42261;52.094;4.326;2023-04-24T13:44:54;9.18;;;1.75;;
56363;SDS011;42261;52.094;4.326;2023-04-24T13:47:38;9.40;;;1.85;;
56363;SDS011;42261;52.094;4.326;2023-04-24T13:50:24;6.65;;;2.10;;
56363;SDS011;42261;52.094;4.326;2023-04-24T13:53:09;11.10;;;2.83;;
56363;SDS011;42261;52.094;4.326;2023-04-24T13:55:53;6.82;;;2.20;;
56363;SDS011;42261;52.094;4.326;2023-04-24T13:58:38;3.90;;;1.75;;
56363;SDS011;42261;52.094;4.326;2023-04-24T14:01:24;10.18;;;1.88;;
56363;SDS011;42261;52.094;4.326;2023-04-24T14:04:08;8.52;;;2.45;;
56363;SDS011;42261;52.094;4.326;2023-04-24T14:06:53;11.05;;;2.10;;
56363;SDS011;42261;52.094;4.326;2023-04-24T14:09:36;9.02;;;1.90;;
56363;SDS011;42261;52.094;4.326;2023-04-24T14:12:21;7.40;;;1.67;;
56363;SDS011;42261;52.094;4.326;2023-04-24T14:15:06;12.48;;;2.17;;
56363;SDS011;42261;52.094;4.326;2023-04-24T14:17:51;14.80;;;2.22;;
56363;SDS011;42261;52.094;4.326;2023-04-24T14:20:36;8.13;;;2.33;;
56363;SDS011;42261;52.094;4.326;2023-04-24T14:23:19;10.77;;;2.20;;
56363;SDS011;42261;52.094;4.326;2023-04-24T14:26:03;14.73;;;4.05;;
56363;SDS011;42261;52.094;4.326;2023-04-24T14:28:47;14.18;;;2.00;;
56363;SDS011;42261;52.094;4.326;2023-04-24T14:31:31;8.65;;;2.03;;
56363;SDS011;42261;52.094;4.326;2023-04-24T14:34:16;24.38;;;6.90;;
56363;SDS011;42261;52.094;4.326;2023-04-24T14:37:00;10.68;;;2.20;;
56363;SDS011;42261;52.094;4.326;2023-04-24T14:39:45;6.82;;;1.73;;
56363;SDS011;42261;52.094;4.326;2023-04-24T14:42:32;8.90;;;2.17;;
56363;SDS011;42261;52.094;4.326;2023-04-24T14:45:17;7.15;;;1.30;;
56363;SDS011;42261;52.094;4.326;2023-04-24T14:48:01;4.60;;;1.60;;
56363;SDS011;42261;52.094;4.326;2023-04-24T14:50:46;5.00;;;1.67;;
56363;SDS011;42261;52.094;4.326;2023-04-24T14:53:30;11.50;;;2.13;;
56363;SDS011;42261;52.094;4.326;2023-04-24T14:56:14;6.93;;;2.08;;
56363;SDS011;42261;52.094;4.326;2023-04-24T14:58:59;12.00;;;1.90;;
56363;SDS011;42261;52.094;4.326;2023-04-24T15:01:42;9.63;;;2.40;;
56363;SDS011;42261;52.094;4.326;2023-04-24T15:04:27;10.65;;;1.63;;
56363;SDS011;42261;52.094;4.326;2023-04-24T15:07:11;14.15;;;2.97;;
56363;SDS011;42261;52.094;4.326;2023-04-24T15:09:56;9.68;;;1.83;;
56363;SDS011;42261;52.094;4.326;2023-04-24T15:12:40;11.68;;;2.30;;
56363;SDS011;42261;52.094;4.326;2023-04-24T15:15:24;6.35;;;2.22;;
56363;SDS011;42261;52.094;4.326;2023-04-24T15:18:10;8.48;;;2.50;;
56363;SDS011;42261;52.094;4.326;2023-04-24T15:20:55;6.15;;;2.30;;
56363;SDS011;42261;52.094;4.326;2023-04-24T15:23:40;10.02;;;2.25;;
56363;SDS011;42261;52.094;4.326;2023-04-24T15:26:24;16.95;;;2.67;;
56363;SDS011;42261;52.094;4.326;2023-04-24T15:29:08;8.10;;;2.30;;
56363;SDS011;42261;52.094;4.326;2023-04-24T15:31:52;12.27;;;2.22;;
56363;SDS011;42261;52.094;4.326;2023-04-24T15:34:37;5.38;;;1.95;;
56363;SDS011;42261;52.094;4.326;2023-04-24T15:37:21;10.18;;;2.17;;
56363;SDS011;42261;52.094;4.326;2023-04-24T15:40:06;11.18;;;2.38;;
56363;SDS011;42261;52.094;4.326;2023-04-24T15:42:50;6.10;;;1.90;;
56363;SDS011;42261;52.094;4.326;2023-04-24T15:45:34;9.65;;;2.05;;
56363;SDS011;42261;52.094;4.326;2023-04-24T15:48:19;10.93;;;1.90;;
56363;SDS011;42261;52.094;4.326;2023-04-24T15:51:03;9.57;;;1.75;;
56363;SDS011;42261;52.094;4.326;2023-04-24T15:53:47;4.30;;;1.58;;
56363;SDS011;42261;52.094;4.326;2023-04-24T15:56:31;7.53;;;1.90;;
56363;SDS011;42261;52.094;4.326;2023-04-24T15:59:17;12.07;;;2.35;;
56363;SDS011;42261;52.094;4.326;2023-04-24T16:02:01;7.35;;;1.88;;
56363;SDS011;42261;52.094;4.326;2023-04-24T16:04:47;8.15;;;2.45;;
56363;SDS011;42261;52.094;4.326;2023-04-24T16:07:32;11.68;;;1.95;;
56363;SDS011;42261;52.094;4.326;2023-04-24T16:10:17;10.65;;;2.42;;
56363;SDS011;42261;52.094;4.326;2023-04-24T16:13:00;10.98;;;2.83;;
56363;SDS011;42261;52.094;4.326;2023-04-24T16:15:47;13.48;;;2.55;;
56363;SDS011;42261;52.094;4.326;2023-04-24T16:18:31;13.90;;;2.55;;
56363;SDS011;42261;52.094;4.326;2023-04-24T16:21:15;10.48;;;2.65;;
56363;SDS011;42261;52.094;4.326;2023-04-24T16:23:59;14.73;;;3.35;;
56363;SDS011;42261;52.094;4.326;2023-04-24T16:26:43;7.53;;;2.25;;
56363;SDS011;42261;52.094;4.326;2023-04-24T16:29:28;12.00;;;2.22;;
56363;SDS011;42261;52.094;4.326;2023-04-24T16:32:12;13.95;;;3.85;;